sensor_id;sensor_type;location;lat;lon;timestamp;temperature;humidity
18339;DHT22;9295;44.484;11.240;2023-05-10T00:02:09;16.00;99.90
18339;DHT22;9295;44.484;11.240;2023-05-10T00:04:37;15.90;99.90
18339;DHT22;9295;44.484;11.240;2023-05-10T00:07:06;15.90;99.90
18339;DHT22;9295;44.484;11.240;2023-05-10T00:09:34;15.90;99.90
18339;DHT22;9295;44.484;11.240;2023-05-10T00:12:03;15.90;99.90
18339;DHT22;9295;44.484;11.240;2023-05-10T00:14:31;15.90;99.90
18339;DHT22;9295;44.484;11.240;2023-05-10T00:17:00;15.90;99.90
18339;DHT22;9295;44.484;11.240;2023-05-10T00:19:30;15.90;99.90
18339;DHT22;9295;44.484;11.240;2023-05-10T00:21:58;15.90;99.90
18339;DHT22;9295;44.484;11.240;2023-05-10T00:24:26;15.90;99.90
18339;DHT22;9295;44.484;11.240;2023-05-10T00:26:55;15.80;99.90
18339;DHT22;9295;44.484;11.240;2023-05-10T00:29:23;15.90;99.90
18339;DHT22;9295;44.484;11.240;2023-05-10T00:31:52;15.90;99.90
18339;DHT22;9295;44.484;11.240;2023-05-10T00:34:21;15.90;99.90
18339;DHT22;9295;44.484;11.240;2023-05-10T00:36:51;15.90;99.90
18339;DHT22;9295;44.484;11.240;2023-05-10T00:39:19;16.00;99.90
18339;DHT22;9295;44.484;11.240;2023-05-10T00:41:49;15.90;99.90
18339;DHT22;9295;44.484;11.240;2023-05-10T00:44:17;15.80;99.90
18339;DHT22;9295;44.484;11.240;2023-05-10T00:46:46;15.80;99.90
18339;DHT22;9295;44.484;11.240;2023-05-10T00:49:16;15.90;99.90
18339;DHT22;9295;44.484;11.240;2023-05-10T00:51:45;15.90;99.90
18339;DHT22;9295;44.484;11.240;2023-05-10T00:54:15;15.80;99.90
18339;DHT22;9295;44.484;11.240;2023-05-10T00:56:44;15.90;99.90
18339;DHT22;9295;44.484;11.240;2023-05-10T00:59:15;15.80;99.90
18339;DHT22;9295;44.484;11.240;2023-05-10T01:01:44;15.80;99.90
18339;DHT22;9295;44.484;11.240;2023-05-10T01:04:14;15.80;99.90
18339;DHT22;9295;44.484;11.240;2023-05-10T01:06:43;15.70;99.90
18339;DHT22;9295;44.484;11.240;2023-05-10T01:09:11;15.70;99.90
18339;DHT22;9295;44.484;11.240;2023-05-10T01:11:41;15.70;99.90
18339;DHT22;9295;44.484;11.240;2023-05-10T01:14:10;15.60;99.90
18339;DHT22;9295;44.484;11.240;2023-05-10T01:16:40;15.70;99.90
18339;DHT22;9295;44.484;11.240;2023-05-10T01:19:15;15.70;99.90
18339;DHT22;9295;44.484;11.240;2023-05-10T01:21:49;15.70;99.90
18339;DHT22;9295;44.484;11.240;2023-05-10T01:24:45;15.70;99.90
18339;DHT22;9295;44.484;11.240;2023-05-10T01:27:47;15.70;99.90
18339;DHT22;9295;44.484;11.240;2023-05-10T01:30:41;15.70;99.90
18339;DHT22;9295;44.484;11.240;2023-05-10T01:33:21;15.70;99.90
18339;DHT22;9295;44.484;11.240;2023-05-10T01:35:57;15.70;99.90
18339;DHT22;9295;44.484;11.240;2023-05-10T01:38:32;15.70;99.90
18339;DHT22;9295;44.484;11.240;2023-05-10T01:41:08;15.70;99.90
18339;DHT22;9295;44.484;11.240;2023-05-10T01:43:48;15.70;99.90
18339;DHT22;9295;44.484;11.240;2023-05-10T01:46:26;15.70;99.90
18339;DHT22;9295;44.484;11.240;2023-05-10T01:48:58;15.70;99.90
18339;DHT22;9295;44.484;11.240;2023-05-10T01:51:34;15.70;99.90
18339;DHT22;9295;44.484;11.240;2023-05-10T01:54:06;15.70;99.90
18339;DHT22;9295;44.484;11.240;2023-05-10T01:56:35;15.60;99.90
18339;DHT22;9295;44.484;11.240;2023-05-10T01:59:11;15.60;99.90
18339;DHT22;9295;44.484;11.240;2023-05-10T02:01:41;15.60;99.90
18339;DHT22;9295;44.484;11.240;2023-05-10T02:04:15;15.50;99.90
18339;DHT22;9295;44.484;11.240;2023-05-10T02:06:46;15.60;99.90
18339;DHT22;9295;44.484;11.240;2023-05-10T02:09:16;15.50;99.90
18339;DHT22;9295;44.484;11.240;2023-05-10T02:11:48;15.50;99.90
18339;DHT22;9295;44.484;11.240;2023-05-10T02:14:18;15.50;99.90
18339;DHT22;9295;44.484;11.240;2023-05-10T02:16:48;15.50;99.90
18339;DHT22;9295;44.484;11.240;2023-05-10T02:19:20;15.50;99.90
18339;DHT22;9295;44.484;11.240;2023-05-10T02:21:51;15.50;99.90
18339;DHT22;9295;44.484;11.240;2023-05-10T02:24:20;15.60;99.90
18339;DHT22;9295;44.484;11.240;2023-05-10T02:26:49;15.50;99.90
18339;DHT22;9295;44.484;11.240;2023-05-10T02:29:19;15.60;99.90
18339;DHT22;9295;44.484;11.240;2023-05-10T02:31:51;15.50;99.90
18339;DHT22;9295;44.484;11.240;2023-05-10T02:34:23;15.50;99.90
18339;DHT22;9295;44.484;11.240;2023-05-10T02:36:53;15.50;99.90
18339;DHT22;9295;44.484;11.240;2023-05-10T02:39:24;15.50;99.90
18339;DHT22;9295;44.484;11.240;2023-05-10T02:41:53;15.50;99.90
18339;DHT22;9295;44.484;11.240;2023-05-10T02:44:23;15.50;99.90
18339;DHT22;9295;44.484;11.240;2023-05-10T02:46:51;15.40;99.90
18339;DHT22;9295;44.484;11.240;2023-05-10T02:49:24;15.40;99.90
18339;DHT22;9295;44.484;11.240;2023-05-10T02:51:57;15.40;99.90
18339;DHT22;9295;44.484;11.240;2023-05-10T02:54:31;15.40;99.90
18339;DHT22;9295;44.484;11.240;2023-05-10T02:57:04;15.30;99.90
18339;DHT22;9295;44.484;11.240;2023-05-10T02:59:33;15.30;99.90
18339;DHT22;9295;44.484;11.240;2023-05-10T03:02:01;15.20;99.90
18339;DHT22;9295;44.484;11.240;2023-05-10T03:04:31;15.20;99.90
18339;DHT22;9295;44.484;11.240;2023-05-10T03:07:00;15.20;99.90
18339;DHT22;9295;44.484;11.240;2023-05-10T03:09:28;15.20;99.90
18339;DHT22;9295;44.484;11.240;2023-05-10T03:12:07;15.30;99.90
18339;DHT22;9295;44.484;11.240;2023-05-10T03:14:49;15.20;99.90
18339;DHT22;9295;44.484;11.240;2023-05-10T03:17:25;15.20;99.90
18339;DHT22;9295;44.484;11.240;2023-05-10T03:19:56;15.10;99.90
18339;DHT22;9295;44.484;11.240;2023-05-10T03:22:31;15.10;99.90
18339;DHT22;9295;44.484;11.240;2023-05-10T03:25:01;15.00;99.90
18339;DHT22;9295;44.484;11.240;2023-05-10T03:27:34;14.90;99.90
18339;DHT22;9295;44.484;11.240;2023-05-10T03:30:05;14.80;99.90
18339;DHT22;9295;44.484;11.240;2023-05-10T03:32:36;14.80;99.90
18339;DHT22;9295;44.484;11.240;2023-05-10T03:35:08;14.80;99.90
18339;DHT22;9295;44.484;11.240;2023-05-10T03:37:37;14.80;99.90
18339;DHT22;9295;44.484;11.240;2023-05-10T03:40:06;14.70;99.90
18339;DHT22;9295;44.484;11.240;2023-05-10T03:42:37;14.70;99.90
18339;DHT22;9295;44.484;11.240;2023-05-10T03:45:07;14.60;99.90
18339;DHT22;9295;44.484;11.240;2023-05-10T03:47:35;14.60;99.90
18339;DHT22;9295;44.484;11.240;2023-05-10T03:50:07;14.60;99.90
18339;DHT22;9295;44.484;11.240;2023-05-10T03:52:35;14.70;99.90
18339;DHT22;9295;44.484;11.240;2023-05-10T03:55:06;14.70;99.90
18339;DHT22;9295;44.484;11.240;2023-05-10T03:57:35;14.70;99.90
18339;DHT22;9295;44.484;11.240;2023-05-10T04:00:04;14.60;99.90
18339;DHT22;9295;44.484;11.240;2023-05-10T04:02:40;14.50;99.90
18339;DHT22;9295;44.484;11.240;2023-05-10T04:05:16;14.40;99.90
18339;DHT22;9295;44.484;11.240;2023-05-10T04:07:44;14.40;99.90
18339;DHT22;9295;44.484;11.240;2023-05-10T04:10:14;14.40;99.90
18339;DHT22;9295;44.484;11.240;2023-05-10T04:12:45;14.40;99.90
18339;DHT22;9295;44.484;11.240;2023-05-10T04:15:13;14.40;99.90
18339;DHT22;9295;44.484;11.240;2023-05-10T04:17:41;14.40;99.90
18339;DHT22;9295;44.484;11.240;2023-05-10T04:20:11;14.40;99.90
18339;DHT22;9295;44.484;11.240;2023-05-10T04:22:41;14.40;99.90
18339;DHT22;9295;44.484;11.240;2023-05-10T04:25:09;14.40;99.90
18339;DHT22;9295;44.484;11.240;2023-05-10T04:27:37;14.30;99.90
18339;DHT22;9295;44.484;11.240;2023-05-10T04:30:07;14.30;99.90
18339;DHT22;9295;44.484;11.240;2023-05-10T04:32:35;14.30;99.90
18339;DHT22;9295;44.484;11.240;2023-05-10T04:35:04;14.30;99.90
18339;DHT22;9295;44.484;11.240;2023-05-10T04:37:33;14.20;99.90
18339;DHT22;9295;44.484;11.240;2023-05-10T04:40:03;14.10;99.90
18339;DHT22;9295;44.484;11.240;2023-05-10T04:42:32;14.10;99.90
18339;DHT22;9295;44.484;11.240;2023-05-10T04:45:00;14.10;99.90
18339;DHT22;9295;44.484;11.240;2023-05-10T04:47:29;14.10;99.90
18339;DHT22;9295;44.484;11.240;2023-05-10T04:49:57;14.20;99.90
18339;DHT22;9295;44.484;11.240;2023-05-10T04:52:26;14.10;99.90
18339;DHT22;9295;44.484;11.240;2023-05-10T04:54:54;14.00;99.90
18339;DHT22;9295;44.484;11.240;2023-05-10T04:57:24;14.10;99.90
18339;DHT22;9295;44.484;11.240;2023-05-10T04:59:52;14.10;99.90
18339;DHT22;9295;44.484;11.240;2023-05-10T05:02:20;14.00;99.90
18339;DHT22;9295;44.484;11.240;2023-05-10T05:04:50;14.00;99.90
18339;DHT22;9295;44.484;11.240;2023-05-10T05:07:19;14.00;99.90
18339;DHT22;9295;44.484;11.240;2023-05-10T05:09:47;14.10;99.90
18339;DHT22;9295;44.484;11.240;2023-05-10T05:12:15;14.10;99.90
18339;DHT22;9295;44.484;11.240;2023-05-10T05:14:45;14.00;99.90
18339;DHT22;9295;44.484;11.240;2023-05-10T05:17:13;14.10;99.90
18339;DHT22;9295;44.484;11.240;2023-05-10T05:19:41;14.00;99.90
18339;DHT22;9295;44.484;11.240;2023-05-10T05:22:10;14.00;99.90
18339;DHT22;9295;44.484;11.240;2023-05-10T05:24:38;14.00;99.90
18339;DHT22;9295;44.484;11.240;2023-05-10T05:27:07;14.00;99.90
18339;DHT22;9295;44.484;11.240;2023-05-10T05:29:35;14.00;99.90
18339;DHT22;9295;44.484;11.240;2023-05-10T05:32:05;14.00;99.90
18339;DHT22;9295;44.484;11.240;2023-05-10T05:34:35;14.10;99.90
18339;DHT22;9295;44.484;11.240;2023-05-10T05:37:03;14.00;99.90
18339;DHT22;9295;44.484;11.240;2023-05-10T05:39:32;14.10;99.90
18339;DHT22;9295;44.484;11.240;2023-05-10T05:42:00;14.00;99.90
18339;DHT22;9295;44.484;11.240;2023-05-10T05:44:28;14.00;99.90
18339;DHT22;9295;44.484;11.240;2023-05-10T05:46:57;14.00;99.90
18339;DHT22;9295;44.484;11.240;2023-05-10T05:49:26;14.10;99.90
18339;DHT22;9295;44.484;11.240;2023-05-10T05:51:58;14.10;99.90
18339;DHT22;9295;44.484;11.240;2023-05-10T05:54:27;14.00;99.90
18339;DHT22;9295;44.484;11.240;2023-05-10T05:56:56;14.00;99.90
18339;DHT22;9295;44.484;11.240;2023-05-10T05:59:27;14.00;99.90
18339;DHT22;9295;44.484;11.240;2023-05-10T06:01:55;14.00;99.90
18339;DHT22;9295;44.484;11.240;2023-05-10T06:04:25;14.00;99.90
18339;DHT22;9295;44.484;11.240;2023-05-10T06:06:54;14.00;99.90
18339;DHT22;9295;44.484;11.240;2023-05-10T06:09:22;14.10;99.90
18339;DHT22;9295;44.484;11.240;2023-05-10T06:11:52;14.10;99.90
18339;DHT22;9295;44.484;11.240;2023-05-10T06:14:20;14.10;99.90
18339;DHT22;9295;44.484;11.240;2023-05-10T06:16:49;14.10;99.90
18339;DHT22;9295;44.484;11.240;2023-05-10T06:19:20;14.10;99.90
18339;DHT22;9295;44.484;11.240;2023-05-10T06:21:52;14.10;99.90
18339;DHT22;9295;44.484;11.240;2023-05-10T06:24:20;14.10;99.90
18339;DHT22;9295;44.484;11.240;2023-05-10T06:26:49;14.20;99.90
18339;DHT22;9295;44.484;11.240;2023-05-10T06:29:17;14.10;99.90
18339;DHT22;9295;44.484;11.240;2023-05-10T06:31:45;14.10;99.90
18339;DHT22;9295;44.484;11.240;2023-05-10T06:34:14;14.10;99.90
18339;DHT22;9295;44.484;11.240;2023-05-10T06:36:43;14.20;99.90
18339;DHT22;9295;44.484;11.240;2023-05-10T06:39:12;14.30;99.90
18339;DHT22;9295;44.484;11.240;2023-05-10T06:41:41;14.20;99.90
18339;DHT22;9295;44.484;11.240;2023-05-10T06:44:09;14.10;99.90
18339;DHT22;9295;44.484;11.240;2023-05-10T06:46:38;14.10;99.90
18339;DHT22;9295;44.484;11.240;2023-05-10T06:49:06;14.30;99.90
18339;DHT22;9295;44.484;11.240;2023-05-10T06:51:34;14.30;99.90
18339;DHT22;9295;44.484;11.240;2023-05-10T06:54:03;14.30;99.90
18339;DHT22;9295;44.484;11.240;2023-05-10T06:56:32;14.30;99.90
18339;DHT22;9295;44.484;11.240;2023-05-10T06:59:01;14.20;99.90
18339;DHT22;9295;44.484;11.240;2023-05-10T07:01:30;14.20;99.90
18339;DHT22;9295;44.484;11.240;2023-05-10T07:03:58;14.10;99.90
18339;DHT22;9295;44.484;11.240;2023-05-10T07:06:26;14.20;99.90
18339;DHT22;9295;44.484;11.240;2023-05-10T07:09:00;14.10;99.90
18339;DHT22;9295;44.484;11.240;2023-05-10T07:11:28;14.10;99.90
18339;DHT22;9295;44.484;11.240;2023-05-10T07:13:58;14.00;99.90
18339;DHT22;9295;44.484;11.240;2023-05-10T07:16:26;14.10;99.90
18339;DHT22;9295;44.484;11.240;2023-05-10T07:18:55;14.10;99.90
18339;DHT22;9295;44.484;11.240;2023-05-10T07:21:23;14.10;99.90
18339;DHT22;9295;44.484;11.240;2023-05-10T07:23:52;14.10;99.90
18339;DHT22;9295;44.484;11.240;2023-05-10T07:26:20;14.20;99.90
18339;DHT22;9295;44.484;11.240;2023-05-10T07:28:49;14.20;99.90
18339;DHT22;9295;44.484;11.240;2023-05-10T07:31:18;14.20;99.90
18339;DHT22;9295;44.484;11.240;2023-05-10T07:33:47;14.20;99.90
18339;DHT22;9295;44.484;11.240;2023-05-10T07:36:15;14.10;99.90
18339;DHT22;9295;44.484;11.240;2023-05-10T07:38:44;14.20;99.90
18339;DHT22;9295;44.484;11.240;2023-05-10T07:41:12;14.10;99.90
18339;DHT22;9295;44.484;11.240;2023-05-10T07:43:41;14.20;99.90
18339;DHT22;9295;44.484;11.240;2023-05-10T07:46:10;14.20;99.90
18339;DHT22;9295;44.484;11.240;2023-05-10T07:48:40;14.20;99.90
18339;DHT22;9295;44.484;11.240;2023-05-10T07:51:08;14.10;99.90
18339;DHT22;9295;44.484;11.240;2023-05-10T07:53:37;14.10;99.90
18339;DHT22;9295;44.484;11.240;2023-05-10T07:56:21;14.10;99.90
18339;DHT22;9295;44.484;11.240;2023-05-10T07:58:50;14.10;99.90
18339;DHT22;9295;44.484;11.240;2023-05-10T08:01:18;14.00;99.90
18339;DHT22;9295;44.484;11.240;2023-05-10T08:03:48;14.00;99.90
18339;DHT22;9295;44.484;11.240;2023-05-10T08:06:18;14.10;99.90
18339;DHT22;9295;44.484;11.240;2023-05-10T08:08:47;14.10;99.90
18339;DHT22;9295;44.484;11.240;2023-05-10T08:11:17;14.00;99.90
18339;DHT22;9295;44.484;11.240;2023-05-10T08:13:46;14.00;99.90
18339;DHT22;9295;44.484;11.240;2023-05-10T08:16:15;13.90;99.90
18339;DHT22;9295;44.484;11.240;2023-05-10T08:18:44;13.90;99.90
18339;DHT22;9295;44.484;11.240;2023-05-10T08:21:15;13.90;99.90
18339;DHT22;9295;44.484;11.240;2023-05-10T08:23:43;14.10;99.90
18339;DHT22;9295;44.484;11.240;2023-05-10T08:26:12;14.10;99.90
18339;DHT22;9295;44.484;11.240;2023-05-10T08:28:40;14.10;99.90
18339;DHT22;9295;44.484;11.240;2023-05-10T08:31:08;14.10;99.90
18339;DHT22;9295;44.484;11.240;2023-05-10T08:33:37;14.10;99.90
18339;DHT22;9295;44.484;11.240;2023-05-10T08:36:07;14.10;99.90
18339;DHT22;9295;44.484;11.240;2023-05-10T08:38:37;14.10;99.90
18339;DHT22;9295;44.484;11.240;2023-05-10T08:41:06;14.10;99.90
18339;DHT22;9295;44.484;11.240;2023-05-10T08:43:36;14.10;99.90
18339;DHT22;9295;44.484;11.240;2023-05-10T08:46:05;14.10;99.90
18339;DHT22;9295;44.484;11.240;2023-05-10T08:48:36;14.10;99.90
18339;DHT22;9295;44.484;11.240;2023-05-10T08:51:05;14.10;99.90
18339;DHT22;9295;44.484;11.240;2023-05-10T08:53:37;14.10;99.90
18339;DHT22;9295;44.484;11.240;2023-05-10T08:56:06;14.00;99.90
18339;DHT22;9295;44.484;11.240;2023-05-10T08:58:34;14.00;99.90
18339;DHT22;9295;44.484;11.240;2023-05-10T09:01:04;14.00;99.90
18339;DHT22;9295;44.484;11.240;2023-05-10T09:03:33;14.00;99.90
18339;DHT22;9295;44.484;11.240;2023-05-10T09:06:01;14.10;99.90
18339;DHT22;9295;44.484;11.240;2023-05-10T09:08:29;14.10;99.90
18339;DHT22;9295;44.484;11.240;2023-05-10T09:11:00;14.20;99.90
18339;DHT22;9295;44.484;11.240;2023-05-10T09:13:30;14.20;99.90
18339;DHT22;9295;44.484;11.240;2023-05-10T09:15:59;14.20;99.90
18339;DHT22;9295;44.484;11.240;2023-05-10T09:18:46;14.30;99.90
18339;DHT22;9295;44.484;11.240;2023-05-10T09:21:14;14.40;99.90
18339;DHT22;9295;44.484;11.240;2023-05-10T09:23:43;14.40;99.90
18339;DHT22;9295;44.484;11.240;2023-05-10T09:26:16;14.30;99.90
18339;DHT22;9295;44.484;11.240;2023-05-10T09:28:51;14.30;99.90
18339;DHT22;9295;44.484;11.240;2023-05-10T09:31:20;14.40;99.90
18339;DHT22;9295;44.484;11.240;2023-05-10T09:33:49;14.40;99.90
18339;DHT22;9295;44.484;11.240;2023-05-10T09:36:18;14.30;99.90
18339;DHT22;9295;44.484;11.240;2023-05-10T09:38:47;14.30;99.90
18339;DHT22;9295;44.484;11.240;2023-05-10T09:41:18;14.30;99.90
18339;DHT22;9295;44.484;11.240;2023-05-10T09:43:47;14.40;99.90
18339;DHT22;9295;44.484;11.240;2023-05-10T09:46:16;14.30;99.90
18339;DHT22;9295;44.484;11.240;2023-05-10T09:48:45;14.40;99.90
18339;DHT22;9295;44.484;11.240;2023-05-10T09:51:20;14.40;99.90
18339;DHT22;9295;44.484;11.240;2023-05-10T09:54:09;14.20;99.90
18339;DHT22;9295;44.484;11.240;2023-05-10T09:56:39;14.10;99.90
18339;DHT22;9295;44.484;11.240;2023-05-10T09:59:10;14.00;99.90
18339;DHT22;9295;44.484;11.240;2023-05-10T10:01:39;14.00;99.90
18339;DHT22;9295;44.484;11.240;2023-05-10T10:04:09;14.00;99.90
18339;DHT22;9295;44.484;11.240;2023-05-10T10:06:38;14.00;99.90
18339;DHT22;9295;44.484;11.240;2023-05-10T10:09:07;13.90;99.90
18339;DHT22;9295;44.484;11.240;2023-05-10T10:11:38;14.00;99.90
18339;DHT22;9295;44.484;11.240;2023-05-10T10:14:08;13.90;99.90
18339;DHT22;9295;44.484;11.240;2023-05-10T10:16:37;13.90;99.90
18339;DHT22;9295;44.484;11.240;2023-05-10T10:19:22;14.00;99.90
18339;DHT22;9295;44.484;11.240;2023-05-10T10:21:50;14.00;99.90
18339;DHT22;9295;44.484;11.240;2023-05-10T10:24:19;14.00;99.90
18339;DHT22;9295;44.484;11.240;2023-05-10T10:26:50;14.00;99.90
18339;DHT22;9295;44.484;11.240;2023-05-10T10:29:26;14.10;99.90
18339;DHT22;9295;44.484;11.240;2023-05-10T10:32:10;14.20;99.90
18339;DHT22;9295;44.484;11.240;2023-05-10T10:34:40;14.30;99.90
18339;DHT22;9295;44.484;11.240;2023-05-10T10:37:08;14.40;99.90
18339;DHT22;9295;44.484;11.240;2023-05-10T10:39:37;14.50;99.90
18339;DHT22;9295;44.484;11.240;2023-05-10T10:42:07;14.50;99.90
18339;DHT22;9295;44.484;11.240;2023-05-10T10:44:38;14.60;99.90
18339;DHT22;9295;44.484;11.240;2023-05-10T10:47:22;14.60;99.90
18339;DHT22;9295;44.484;11.240;2023-05-10T10:50:04;14.70;99.90
18339;DHT22;9295;44.484;11.240;2023-05-10T10:52:33;14.60;99.90
18339;DHT22;9295;44.484;11.240;2023-05-10T10:55:04;14.60;99.90
18339;DHT22;9295;44.484;11.240;2023-05-10T10:57:47;14.70;99.90
18339;DHT22;9295;44.484;11.240;2023-05-10T11:00:24;14.70;99.90
18339;DHT22;9295;44.484;11.240;2023-05-10T11:02:56;14.70;99.90
18339;DHT22;9295;44.484;11.240;2023-05-10T11:05:46;14.70;99.90
18339;DHT22;9295;44.484;11.240;2023-05-10T11:08:16;14.60;99.90
18339;DHT22;9295;44.484;11.240;2023-05-10T11:10:54;14.50;99.90
18339;DHT22;9295;44.484;11.240;2023-05-10T11:13:33;14.50;99.90
18339;DHT22;9295;44.484;11.240;2023-05-10T11:16:12;14.30;99.90
18339;DHT22;9295;44.484;11.240;2023-05-10T11:18:52;14.20;99.90
18339;DHT22;9295;44.484;11.240;2023-05-10T11:21:21;14.10;99.90
18339;DHT22;9295;44.484;11.240;2023-05-10T11:23:53;14.10;99.90
18339;DHT22;9295;44.484;11.240;2023-05-10T11:26:23;14.00;99.90
18339;DHT22;9295;44.484;11.240;2023-05-10T11:28:54;14.00;99.90
18339;DHT22;9295;44.484;11.240;2023-05-10T11:31:23;14.10;99.90
18339;DHT22;9295;44.484;11.240;2023-05-10T11:33:55;14.10;99.90
18339;DHT22;9295;44.484;11.240;2023-05-10T11:36:26;14.20;99.90
18339;DHT22;9295;44.484;11.240;2023-05-10T11:38:56;14.10;99.90
18339;DHT22;9295;44.484;11.240;2023-05-10T11:41:25;14.00;99.90
18339;DHT22;9295;44.484;11.240;2023-05-10T11:43:57;13.90;99.90
18339;DHT22;9295;44.484;11.240;2023-05-10T11:46:27;13.80;99.90
18339;DHT22;9295;44.484;11.240;2023-05-10T11:48:58;13.80;99.90
18339;DHT22;9295;44.484;11.240;2023-05-10T11:51:28;13.80;99.90
18339;DHT22;9295;44.484;11.240;2023-05-10T11:53:57;13.90;99.90
18339;DHT22;9295;44.484;11.240;2023-05-10T11:56:25;14.10;99.90
18339;DHT22;9295;44.484;11.240;2023-05-10T11:58:56;14.10;99.90
18339;DHT22;9295;44.484;11.240;2023-05-10T12:01:28;14.20;99.90
18339;DHT22;9295;44.484;11.240;2023-05-10T12:03:57;14.20;99.90
18339;DHT22;9295;44.484;11.240;2023-05-10T12:06:29;14.30;99.90
18339;DHT22;9295;44.484;11.240;2023-05-10T12:08:59;14.30;99.90
18339;DHT22;9295;44.484;11.240;2023-05-10T12:11:29;14.40;99.90
18339;DHT22;9295;44.484;11.240;2023-05-10T12:13:59;14.40;99.90
18339;DHT22;9295;44.484;11.240;2023-05-10T12:16:29;14.30;99.90
18339;DHT22;9295;44.484;11.240;2023-05-10T12:18:59;14.40;99.90
18339;DHT22;9295;44.484;11.240;2023-05-10T12:21:29;14.30;99.90
18339;DHT22;9295;44.484;11.240;2023-05-10T12:24:01;14.20;99.90
18339;DHT22;9295;44.484;11.240;2023-05-10T12:26:29;14.20;99.90
18339;DHT22;9295;44.484;11.240;2023-05-10T12:29:13;14.20;99.90
18339;DHT22;9295;44.484;11.240;2023-05-10T12:31:50;14.20;99.90
18339;DHT22;9295;44.484;11.240;2023-05-10T12:34:31;14.20;99.90
18339;DHT22;9295;44.484;11.240;2023-05-10T12:37:00;14.20;99.90
18339;DHT22;9295;44.484;11.240;2023-05-10T12:39:38;14.20;99.90
18339;DHT22;9295;44.484;11.240;2023-05-10T12:42:07;14.20;99.90
18339;DHT22;9295;44.484;11.240;2023-05-10T12:44:36;14.20;99.90
18339;DHT22;9295;44.484;11.240;2023-05-10T12:47:05;14.20;99.90
18339;DHT22;9295;44.484;11.240;2023-05-10T12:49:33;14.20;99.90
18339;DHT22;9295;44.484;11.240;2023-05-10T12:52:02;14.20;99.90
18339;DHT22;9295;44.484;11.240;2023-05-10T12:54:30;14.20;99.90
18339;DHT22;9295;44.484;11.240;2023-05-10T12:56:59;14.20;99.90
18339;DHT22;9295;44.484;11.240;2023-05-10T12:59:27;14.20;99.90
18339;DHT22;9295;44.484;11.240;2023-05-10T13:01:57;14.30;99.90
18339;DHT22;9295;44.484;11.240;2023-05-10T13:04:25;14.30;99.90
18339;DHT22;9295;44.484;11.240;2023-05-10T13:06:54;14.30;99.90
18339;DHT22;9295;44.484;11.240;2023-05-10T13:09:25;14.30;99.90
18339;DHT22;9295;44.484;11.240;2023-05-10T13:11:56;14.40;99.90
18339;DHT22;9295;44.484;11.240;2023-05-10T13:14:25;14.40;99.90
18339;DHT22;9295;44.484;11.240;2023-05-10T13:16:53;14.50;99.90
18339;DHT22;9295;44.484;11.240;2023-05-10T13:19:23;14.50;99.90
18339;DHT22;9295;44.484;11.240;2023-05-10T13:21:51;14.50;99.90
18339;DHT22;9295;44.484;11.240;2023-05-10T13:24:20;14.50;99.90
18339;DHT22;9295;44.484;11.240;2023-05-10T13:26:49;14.50;99.90
18339;DHT22;9295;44.484;11.240;2023-05-10T13:29:17;14.50;99.90
18339;DHT22;9295;44.484;11.240;2023-05-10T13:31:46;14.50;99.90
18339;DHT22;9295;44.484;11.240;2023-05-10T13:34:14;14.50;99.90
18339;DHT22;9295;44.484;11.240;2023-05-10T13:36:44;14.50;99.90
18339;DHT22;9295;44.484;11.240;2023-05-10T13:39:12;14.50;99.90
18339;DHT22;9295;44.484;11.240;2023-05-10T13:41:40;14.50;99.90
18339;DHT22;9295;44.484;11.240;2023-05-10T13:44:09;14.60;99.90
18339;DHT22;9295;44.484;11.240;2023-05-10T13:46:37;14.70;99.90
18339;DHT22;9295;44.484;11.240;2023-05-10T13:49:06;14.80;99.90
18339;DHT22;9295;44.484;11.240;2023-05-10T13:51:35;14.80;99.90
18339;DHT22;9295;44.484;11.240;2023-05-10T13:54:05;14.80;99.90
18339;DHT22;9295;44.484;11.240;2023-05-10T13:56:33;14.70;99.90
18339;DHT22;9295;44.484;11.240;2023-05-10T13:59:01;14.60;99.90
18339;DHT22;9295;44.484;11.240;2023-05-10T14:01:30;14.50;99.90
18339;DHT22;9295;44.484;11.240;2023-05-10T14:03:58;14.40;99.90
18339;DHT22;9295;44.484;11.240;2023-05-10T14:06:27;14.40;99.90
18339;DHT22;9295;44.484;11.240;2023-05-10T14:08:55;14.30;99.90
18339;DHT22;9295;44.484;11.240;2023-05-10T14:11:25;14.20;99.90
18339;DHT22;9295;44.484;11.240;2023-05-10T14:13:53;14.10;99.90
18339;DHT22;9295;44.484;11.240;2023-05-10T14:16:22;14.10;99.90
18339;DHT22;9295;44.484;11.240;2023-05-10T14:18:51;14.00;99.90
18339;DHT22;9295;44.484;11.240;2023-05-10T14:21:19;14.00;99.90
18339;DHT22;9295;44.484;11.240;2023-05-10T14:23:47;14.00;99.90
18339;DHT22;9295;44.484;11.240;2023-05-10T14:26:15;14.00;99.90
18339;DHT22;9295;44.484;11.240;2023-05-10T14:28:46;14.00;99.90
18339;DHT22;9295;44.484;11.240;2023-05-10T14:31:14;14.00;99.90
18339;DHT22;9295;44.484;11.240;2023-05-10T14:33:44;14.00;99.90
18339;DHT22;9295;44.484;11.240;2023-05-10T14:36:12;14.00;99.90
18339;DHT22;9295;44.484;11.240;2023-05-10T14:38:41;14.10;99.90
18339;DHT22;9295;44.484;11.240;2023-05-10T14:41:09;14.10;99.90
18339;DHT22;9295;44.484;11.240;2023-05-10T14:43:41;14.10;99.90
18339;DHT22;9295;44.484;11.240;2023-05-10T14:46:10;14.10;99.90
18339;DHT22;9295;44.484;11.240;2023-05-10T14:48:39;14.00;99.90
18339;DHT22;9295;44.484;11.240;2023-05-10T14:51:08;14.00;99.90
18339;DHT22;9295;44.484;11.240;2023-05-10T14:53:36;14.00;99.90
18339;DHT22;9295;44.484;11.240;2023-05-10T14:56:05;14.00;99.90
18339;DHT22;9295;44.484;11.240;2023-05-10T14:58:34;14.00;99.90
18339;DHT22;9295;44.484;11.240;2023-05-10T15:01:02;14.00;99.90
18339;DHT22;9295;44.484;11.240;2023-05-10T15:03:33;14.00;99.90
18339;DHT22;9295;44.484;11.240;2023-05-10T15:06:03;14.00;99.90
18339;DHT22;9295;44.484;11.240;2023-05-10T15:08:31;14.00;99.90
18339;DHT22;9295;44.484;11.240;2023-05-10T15:10:59;14.00;99.90
18339;DHT22;9295;44.484;11.240;2023-05-10T15:13:28;14.10;99.90
18339;DHT22;9295;44.484;11.240;2023-05-10T15:15:56;14.10;99.90
18339;DHT22;9295;44.484;11.240;2023-05-10T15:18:25;14.20;99.90
18339;DHT22;9295;44.484;11.240;2023-05-10T15:20:54;14.30;99.90
18339;DHT22;9295;44.484;11.240;2023-05-10T15:23:23;14.40;99.90
18339;DHT22;9295;44.484;11.240;2023-05-10T15:25:51;14.50;99.90
18339;DHT22;9295;44.484;11.240;2023-05-10T15:28:22;14.60;99.90
18339;DHT22;9295;44.484;11.240;2023-05-10T15:30:51;14.50;99.90
18339;DHT22;9295;44.484;11.240;2023-05-10T15:33:19;14.50;99.90
18339;DHT22;9295;44.484;11.240;2023-05-10T15:35:48;14.60;99.90
18339;DHT22;9295;44.484;11.240;2023-05-10T15:38:17;14.60;99.90
18339;DHT22;9295;44.484;11.240;2023-05-10T15:40:46;14.50;99.90
18339;DHT22;9295;44.484;11.240;2023-05-10T15:43:14;14.50;99.90
18339;DHT22;9295;44.484;11.240;2023-05-10T15:45:43;14.50;99.90
18339;DHT22;9295;44.484;11.240;2023-05-10T15:48:11;14.40;99.90
18339;DHT22;9295;44.484;11.240;2023-05-10T15:50:39;14.30;99.90